Time;durP1;ratioP1;P1;durP2;ratioP2;P2;SDS_P1;SDS_P2;PMS_P1;PMS_P2;Temp;Humidity;BMP_temperature;BMP_pressure;BME280_temperature;BME280_humidity;BME280_pressure;Samples;Min_cycle;Max_cycle;Signal;HPM_P1;HPM_P2
2021/04/29 00:01:05;;;;;;;;;;;;;;;18.37;64.73;100773.16;4975955;28;1365;-62
2021/04/29 00:03:31;;;;;;;;;;;;;;;18.39;64.91;100779.22;4975726;28;1603;-62
2021/04/29 00:05:57;;;;;;;;;;;;;;;18.35;64.74;100761.75;4975717;28;1064;-62
2021/04/29 00:08:23;;;;;;;;;;;;;;;18.36;64.69;100760.75;4975402;28;1659;-62
2021/04/29 00:10:49;;;;;;;;;;;;;;;18.35;64.69;100764.41;4975655;28;1906;-62
2021/04/29 00:13:16;;;;;;;;;;;;;;;18.35;64.63;100775.13;4975332;28;1550;-62
2021/04/29 00:15:44;;;;;;;;;;;;;;;18.33;65.43;100763.69;4975858;28;1089;-62
2021/04/29 00:18:10;;;;;;;;;;;;;;;18.34;64.93;100768.06;4975620;28;1527;-62
2021/04/29 00:20:36;;;;;;;;;;;;;;;18.32;65.01;100772.69;4975445;28;1575;-62
2021/04/29 00:23:02;;;;;;;;;;;;;;;18.29;64.93;100774.66;4975846;28;1063;-62
2021/04/29 00:25:28;;;;;;;;;;;;;;;18.27;65.17;100770.41;4975293;28;1416;-62
2021/04/29 00:27:54;;;;;;;;;;;;;;;18.29;64.90;100780.00;4975536;28;1531;-62
2021/04/29 00:30:22;;;;;;;;;;;;;;;18.31;65.15;100774.53;4979270;28;1976;-62
2021/04/29 00:32:48;;;;;;;;;;;;;;;18.28;64.89;100777.44;4979184;28;1103;-62
2021/04/29 00:35:14;;;;;;;;;;;;;;;18.28;64.69;100783.69;4979344;28;1048;-62
2021/04/29 00:37:40;;;;;;;;;;;;;;;18.33;64.68;100790.47;4979219;28;1523;-62
2021/04/29 00:40:07;;;;;;;;;;;;;;;18.35;64.77;100783.16;4979312;28;976;-62
2021/04/29 00:42:35;;;;;;;;;;;;;;;18.34;64.69;100774.25;4979200;28;1598;-62
2021/04/29 00:45:01;;;;;;;;;;;;;;;18.34;64.75;100781.44;4978843;28;1139;-62
2021/04/29 00:47:28;;;;;;;;;;;;;;;18.33;64.61;100777.09;4978762;28;1523;-62
2021/04/29 00:49:56;;;;;;;;;;;;;;;18.33;64.41;100766.38;4979091;28;1985;-62
2021/04/29 00:52:22;;;;;;;;;;;;;;;18.34;64.69;100782.28;4979150;28;1004;-62
2021/04/29 00:54:48;;;;;;;;;;;;;;;18.33;64.71;100782.44;4978553;28;1620;-62
2021/04/29 00:57:14;;;;;;;;;;;;;;;18.33;64.73;100772.56;4978883;28;1526;-62
2021/04/29 00:59:40;;;;;;;;;;;;;;;18.33;64.66;100763.69;4978737;28;1479;-62
2021/04/29 01:02:08;;;;;;;;;;;;;;;18.33;64.42;100763.69;4978897;28;1413;-62
2021/04/29 01:04:37;;;;;;;;;;;;;;;18.32;64.71;100767.34;4978614;28;947;-62
2021/04/29 01:07:06;;;;;;;;;;;;;;;18.30;64.58;100756.75;4978904;28;1035;-62
2021/04/29 01:09:37;;;;;;;;;;;;;;;18.32;64.50;100754.78;4978256;28;1523;-62
2021/04/29 01:12:07;;;;;;;;;;;;;;;18.34;64.55;100760.03;4978182;28;1967;-62
2021/04/29 01:14:33;;;;;;;;;;;;;;;18.33;64.84;100744.97;4978493;28;1037;-62
2021/04/29 01:17:00;;;;;;;;;;;;;;;18.32;64.57;100757.47;4978398;28;1674;-62
2021/04/29 01:19:33;;;;;;;;;;;;;;;18.32;64.85;100762.81;4978134;28;1503;-62
2021/04/29 01:22:00;;;;;;;;;;;;;;;18.34;64.72;100765.38;4978603;28;984;-62
2021/04/29 01:24:28;;;;;;;;;;;;;;;18.29;64.46;100736.34;4977751;28;1582;-62
2021/04/29 01:26:56;;;;;;;;;;;;;;;18.31;64.75;100744.25;4978321;28;1527;-62
2021/04/29 01:29:23;;;;;;;;;;;;;;;18.28;65.02;100737.31;4978455;28;1062;-62
2021/04/29 01:31:52;;;;;;;;;;;;;;;18.26;64.61;100734.78;4978252;28;1977;-62
2021/04/29 01:34:19;;;;;;;;;;;;;;;18.25;64.65;100727.72;4977917;28;1578;-62
2021/04/29 01:36:46;;;;;;;;;;;;;;;18.27;64.76;100741.81;4978369;28;1066;-62
2021/04/29 01:39:13;;;;;;;;;;;;;;;18.27;64.48;100740.97;4977942;28;988;-62
2021/04/29 01:41:40;;;;;;;;;;;;;;;18.23;64.84;100737.72;4977752;28;1543;-62
2021/04/29 01:44:08;;;;;;;;;;;;;;;18.24;64.60;100735.88;4977811;28;1651;-62
2021/04/29 01:46:34;;;;;;;;;;;;;;;18.23;64.85;100743.06;4978197;28;1054;-62
2021/04/29 01:49:01;;;;;;;;;;;;;;;18.23;64.67;100740.38;4978180;28;1043;-62
2021/04/29 01:51:27;;;;;;;;;;;;;;;18.22;65.04;100738.69;4977995;28;1974;-62
2021/04/29 01:53:53;;;;;;;;;;;;;;;18.25;65.16;100751.81;4977814;28;1579;-62
2021/04/29 01:56:20;;;;;;;;;;;;;;;18.26;64.96;100739.25;4977112;28;1546;-62
2021/04/29 01:58:46;;;;;;;;;;;;;;;18.25;64.46;100724.19;4977675;28;1441;-62
2021/04/29 02:01:13;;;;;;;;;;;;;;;18.27;64.40;100747.16;4989482;23;1993;-44
2021/04/29 02:03:39;;;;;;;;;;;;;;;18.26;64.63;100726.75;4976286;28;1103;-43
2021/04/29 02:06:05;;;;;;;;;;;;;;;18.27;64.68;100728.44;4976206;28;1271;-43
2021/04/29 02:08:31;;;;;;;;;;;;;;;18.29;64.80;100737.19;4975821;28;1732;-44
2021/04/29 02:10:58;;;;;;;;;;;;;;;18.27;64.37;100739.13;4995516;23;3510;-62
2021/04/29 02:13:26;;;;;;;;;;;;;;;18.29;64.29;100747.88;4996190;28;1510;-62
2021/04/29 02:15:54;;;;;;;;;;;;;;;18.28;64.36;100746.22;4984167;28;1483;-62
2021/04/29 02:18:23;;;;;;;;;;;;;;;18.28;64.52;100743.53;4977647;28;995;-62
2021/04/29 02:20:50;;;;;;;;;;;;;;;18.31;64.70;100749.59;4985427;28;1462;-62
2021/04/29 02:23:18;;;;;;;;;;;;;;;18.28;64.46;100751.56;4977503;28;1041;-62
2021/04/29 02:25:46;;;;;;;;;;;;;;;18.28;64.58;100756.91;4977412;28;1534;-62
2021/04/29 02:28:12;;;;;;;;;;;;;;;18.26;64.53;100753.53;4977437;28;986;-62
2021/04/29 02:30:38;;;;;;;;;;;;;;;18.26;64.76;100748.16;4978658;28;1974;-62
2021/04/29 02:33:05;;;;;;;;;;;;;;;18.27;64.58;100752.53;4996803;28;1096;-62
2021/04/29 02:35:32;;;;;;;;;;;;;;;18.59;63.78;100753.41;4994605;28;1455;-62
2021/04/29 02:37:59;;;;;;;;;;;;;;;19.41;61.41;100731.84;4983366;28;1580;-62
2021/04/29 02:40:26;;;;;;;;;;;;;;;20.18;59.66;100743.59;4996006;28;1533;-62
2021/04/29 02:42:52;;;;;;;;;;;;;;;20.20;59.77;100736.25;4996655;28;1002;-62
2021/04/29 02:45:18;;;;;;;;;;;;;;;19.62;61.18;100753.19;4996087;28;1047;-62
2021/04/29 02:47:45;;;;;;;;;;;;;;;19.41;61.78;100776.59;4992702;28;1518;-62
2021/04/29 02:50:12;;;;;;;;;;;;;;;19.56;61.57;100775.22;4983775;28;1902;-62
2021/04/29 02:52:39;;;;;;;;;;;;;;;19.97;60.33;100769.75;4995399;28;1127;-62
2021/04/29 02:55:06;;;;;;;;;;;;;;;20.34;59.49;100774.38;4980507;28;1534;-62
2021/04/29 02:57:32;;;;;;;;;;;;;;;20.55;59.53;100775.06;4976915;28;987;-62
2021/04/29 02:59:58;;;;;;;;;;;;;;;20.65;59.12;100786.66;4976879;28;1055;-62
2021/04/29 03:02:25;;;;;;;;;;;;;;;20.75;58.44;100794.69;4976810;28;1398;-62
2021/04/29 03:04:51;;;;;;;;;;;;;;;20.70;59.03;100790.72;4989662;28;1459;-62
2021/04/29 03:07:17;;;;;;;;;;;;;;;20.66;59.16;100799.06;4995527;28;1483;-62
2021/04/29 03:09:44;;;;;;;;;;;;;;;20.69;58.52;100805.16;4996144;28;938;-62
2021/04/29 03:12:10;;;;;;;;;;;;;;;20.74;59.19;100798.34;4995464;28;1910;-62
2021/04/29 03:14:36;;;;;;;;;;;;;;;20.73;59.27;100815.47;4996069;28;1042;-62
2021/04/29 03:17:03;;;;;;;;;;;;;;;20.78;58.99;100807.81;4995367;28;1452;-62
2021/04/29 03:19:29;;;;;;;;;;;;;;;20.76;58.92;100823.22;4995981;28;986;-62
2021/04/29 03:21:55;;;;;;;;;;;;;;;20.81;58.58;100815.59;4995345;28;1602;-62
2021/04/29 03:24:21;;;;;;;;;;;;;;;20.81;58.30;100820.09;4995277;28;1574;-62
2021/04/29 03:26:48;;;;;;;;;;;;;;;20.83;58.50;100840.50;4995912;28;1055;-62
2021/04/29 03:29:14;;;;;;;;;;;;;;;20.88;58.27;100834.66;4995609;28;1557;-62
2021/04/29 03:31:40;;;;;;;;;;;;;;;20.86;58.28;100844.72;4995504;28;1898;-62
2021/04/29 03:34:06;;;;;;;;;;;;;;;20.91;58.47;100826.31;4995451;28;1863;-62
2021/04/29 03:36:33;;;;;;;;;;;;;;;20.87;58.47;100846.44;4995708;28;975;-62
2021/04/29 03:39:00;;;;;;;;;;;;;;;20.99;58.30;100856.00;4995125;28;1530;-62
2021/04/29 03:41:26;;;;;;;;;;;;;;;20.94;58.10;100849.38;4995341;28;1518;-62
2021/04/29 03:43:53;;;;;;;;;;;;;;;20.94;58.43;100842.13;4995233;28;1479;-62
2021/04/29 03:46:19;;;;;;;;;;;;;;;21.00;58.05;100835.34;4995227;28;1498;-59
2021/04/29 03:48:45;;;;;;;;;;;;;;;20.96;59.05;100842.00;4994290;28;1474;-70
2021/04/29 03:51:11;;;;;;;;;;;;;;;20.98;58.31;100840.84;4994042;28;1973;-73
2021/04/29 03:53:37;;;;;;;;;;;;;;;21.03;58.82;100827.81;4994718;28;1543;-72
2021/04/29 03:56:03;;;;;;;;;;;;;;;20.85;59.77;100829.59;4994865;28;1466;-67
2021/04/29 03:58:29;;;;;;;;;;;;;;;20.45;60.85;100825.25;4995582;28;978;-63
2021/04/29 04:00:56;;;;;;;;;;;;;;;20.00;61.67;100826.69;4995130;28;1391;-69
2021/04/29 04:03:22;;;;;;;;;;;;;;;19.80;62.34;100831.19;4997919;28;987;-69
2021/04/29 04:05:48;;;;;;;;;;;;;;;19.73;62.65;100824.66;4999163;28;1526;-62
2021/04/29 04:08:14;;;;;;;;;;;;;;;19.46;63.18;100823.47;4999280;28;1538;-67
2021/04/29 04:10:40;;;;;;;;;;;;;;;19.41;63.27;100814.97;4998822;28;1977;-65
2021/04/29 04:13:06;;;;;;;;;;;;;;;19.33;63.13;100822.00;4999355;28;980;-61
2021/04/29 04:15:32;;;;;;;;;;;;;;;19.28;62.83;100822.44;4997773;28;1495;-67
2021/04/29 04:17:59;;;;;;;;;;;;;;;19.24;63.05;100818.31;4998974;28;1052;-65
2021/04/29 04:20:25;;;;;;;;;;;;;;;19.22;63.26;100829.19;4999271;28;963;-62
2021/04/29 04:22:51;;;;;;;;;;;;;;;19.20;63.26;100827.59;4998734;28;1213;-63
2021/04/29 04:25:17;;;;;;;;;;;;;;;19.22;63.14;100831.03;4998467;28;1331;-75
2021/04/29 04:27:44;;;;;;;;;;;;;;;19.23;63.31;100827.34;4998526;28;1519;-62
2021/04/29 04:30:10;;;;;;;;;;;;;;;19.06;63.40;100827.00;4998956;28;1979;-69
2021/04/29 04:32:36;;;;;;;;;;;;;;;19.01;63.75;100845.31;4998549;28;1467;-65
2021/04/29 04:35:03;;;;;;;;;;;;;;;18.99;64.07;100839.22;4997810;28;1559;-61
2021/04/29 04:37:29;;;;;;;;;;;;;;;18.89;64.17;100824.94;5000803;28;1185;-61
2021/04/29 04:39:56;;;;;;;;;;;;;;;18.87;64.12;100848.34;4998047;28;1542;-63
2021/04/29 04:42:22;;;;;;;;;;;;;;;18.85;64.38;100851.13;4998264;28;1468;-60
2021/04/29 04:44:48;;;;;;;;;;;;;;;18.83;64.70;100852.25;4998159;28;1511;-63
2021/04/29 04:47:14;;;;;;;;;;;;;;;18.84;64.56;100853.94;4998417;28;1056;-62
2021/04/29 04:49:40;;;;;;;;;;;;;;;18.82;64.70;100853.22;4998369;28;1308;-58
2021/04/29 04:52:07;;;;;;;;;;;;;;;18.80;64.87;100863.22;4998178;28;1985;-58
2021/04/29 04:54:34;;;;;;;;;;;;;;;18.85;65.42;100877.09;4997053;28;1146;-59
2021/04/29 04:57:00;;;;;;;;;;;;;;;18.91;65.89;100863.16;4998204;28;909;-63
2021/04/29 04:59:26;;;;;;;;;;;;;;;18.86;65.69;100862.69;4998558;28;999;-64
2021/04/29 05:01:52;;;;;;;;;;;;;;;18.83;66.22;100857.63;4998034;28;1403;-65
2021/04/29 05:04:18;;;;;;;;;;;;;;;18.78;66.39;100868.72;4998432;28;987;-69
2021/04/29 05:06:45;;;;;;;;;;;;;;;18.83;66.57;100889.78;4998112;28;1122;-62
2021/04/29 05:09:11;;;;;;;;;;;;;;;18.75;66.60;100882.34;4998357;28;980;-64
2021/04/29 05:11:37;;;;;;;;;;;;;;;18.76;66.48;100883.19;4989618;28;1999;-62
2021/04/29 05:14:03;;;;;;;;;;;;;;;18.78;66.53;100881.25;4973792;28;1392;-67
2021/04/29 05:16:29;;;;;;;;;;;;;;;18.77;66.78;100884.91;4978276;28;1453;-67
2021/04/29 05:18:56;;;;;;;;;;;;;;;18.82;66.82;100893.41;4977914;28;1484;-64
2021/04/29 05:21:22;;;;;;;;;;;;;;;18.81;67.93;100899.78;4978265;28;1376;-62
2021/04/29 05:23:48;;;;;;;;;;;;;;;18.83;67.83;100895.97;4978441;28;1399;-61
2021/04/29 05:26:15;;;;;;;;;;;;;;;18.83;69.25;100906.69;4978250;28;1052;-71
2021/04/29 05:28:41;;;;;;;;;;;;;;;18.79;69.92;100904.38;4978161;28;1114;-61
2021/04/29 05:31:07;;;;;;;;;;;;;;;18.84;69.75;100896.81;4978127;28;1906;-64
2021/04/29 05:33:33;;;;;;;;;;;;;;;18.86;70.22;100901.09;4978090;28;1060;-62
2021/04/29 05:35:59;;;;;;;;;;;;;;;18.81;70.17;100905.13;4977690;28;1449;-58
2021/04/29 05:38:25;;;;;;;;;;;;;;;18.75;70.33;100905.63;4977879;28;1400;-58
2021/04/29 05:40:51;;;;;;;;;;;;;;;18.74;70.58;100910.16;4977604;28;1439;-59
2021/04/29 05:43:18;;;;;;;;;;;;;;;18.74;70.99;100901.22;4977414;28;1438;-66
2021/04/29 05:45:44;;;;;;;;;;;;;;;18.78;70.48;100916.06;4978254;28;1313;-61
2021/04/29 05:48:10;;;;;;;;;;;;;;;18.79;70.41;100923.13;4977960;28;1090;-64
2021/04/29 05:50:37;;;;;;;;;;;;;;;18.83;70.25;100929.97;4977697;28;1982;-58
2021/04/29 05:53:03;;;;;;;;;;;;;;;18.82;70.44;100926.44;4978097;28;1030;-58
2021/04/29 05:55:29;;;;;;;;;;;;;;;18.83;70.01;100927.28;4977819;28;1297;-58
2021/04/29 05:57:57;;;;;;;;;;;;;;;18.83;70.64;100932.66;4977777;28;1055;-61
2021/04/29 06:00:25;;;;;;;;;;;;;;;18.85;70.24;100931.53;4977670;28;1047;-57
2021/04/29 06:02:51;;;;;;;;;;;;;;;18.84;70.01;100935.19;4977841;28;1473;-57
2021/04/29 06:05:17;;;;;;;;;;;;;;;18.85;69.54;100934.19;4977533;28;1127;-60
2021/04/29 06:07:43;;;;;;;;;;;;;;;18.84;69.92;100934.31;4977578;28;1052;-59
2021/04/29 06:10:10;;;;;;;;;;;;;;;18.80;69.52;100939.13;4977527;28;1064;-57
2021/04/29 06:12:36;;;;;;;;;;;;;;;18.84;69.82;100945.03;4976481;28;1981;-58
2021/04/29 06:15:02;;;;;;;;;;;;;;;18.81;69.31;100945.31;4977514;28;1396;-57
2021/04/29 06:17:29;;;;;;;;;;;;;;;18.70;69.50;100943.50;4977299;28;1032;-57
2021/04/29 06:19:55;;;;;;;;;;;;;;;18.62;69.72;100949.53;4977549;28;971;-57
2021/04/29 06:22:21;;;;;;;;;;;;;;;18.65;69.43;100948.41;4977222;28;1115;-59
2021/04/29 06:24:47;;;;;;;;;;;;;;;18.67;69.19;100947.28;4976997;28;1137;-58
2021/04/29 06:27:13;;;;;;;;;;;;;;;18.68;69.86;100957.03;4976057;28;1197;-58
2021/04/29 06:29:39;;;;;;;;;;;;;;;18.63;70.34;100953.88;4976681;28;1114;-58
2021/04/29 06:32:06;;;;;;;;;;;;;;;18.66;70.16;100955.44;4976572;28;1906;-60
2021/04/29 06:34:32;;;;;;;;;;;;;;;18.61;70.12;100966.56;4977000;28;1217;-57
2021/04/29 06:37:00;;;;;;;;;;;;;;;18.09;67.19;100962.84;4977230;28;1070;-61
2021/04/29 06:39:26;;;;;;;;;;;;;;;18.29;69.85;100967.41;4289966;28;10000681;-58
2021/04/29 06:41:53;;;;;;;;;;;;;;;18.49;69.26;100962.22;4983431;28;1131;-59
2021/04/29 06:44:19;;;;;;;;;;;;;;;18.56;68.65;100963.44;4968330;28;1497;-59
2021/04/29 06:46:45;;;;;;;;;;;;;;;18.60;67.98;100972.03;4976642;28;1480;-60
2021/04/29 06:49:11;;;;;;;;;;;;;;;18.56;68.88;100971.47;4972021;28;1558;-60
2021/04/29 06:51:38;;;;;;;;;;;;;;;18.56;68.70;100962.56;4975358;28;1902;-58
2021/04/29 06:54:06;;;;;;;;;;;;;;;18.62;68.67;100962.91;4976619;28;1464;-58
2021/04/29 06:56:32;;;;;;;;;;;;;;;18.61;68.15;100965.72;4975387;28;1543;-58
2021/04/29 06:58:58;;;;;;;;;;;;;;;18.57;68.48;100950.88;4976397;28;1546;-61
2021/04/29 07:01:24;;;;;;;;;;;;;;;18.58;68.77;100974.88;4975946;28;1575;-59
2021/04/29 07:03:51;;;;;;;;;;;;;;;18.53;67.43;100974.38;4975793;28;1440;-60
2021/04/29 07:06:17;;;;;;;;;;;;;;;17.63;65.12;100962.00;4975419;28;1484;-59
2021/04/29 07:08:44;;;;;;;;;;;;;;;17.86;68.88;100973.53;4975949;28;1515;-55
2021/04/29 07:11:10;;;;;;;;;;;;;;;18.14;67.43;100967.81;4982767;28;1911;-55
2021/04/29 07:13:35;;;;;;;;;;;;;;;18.29;67.74;100980.78;4996019;28;1066;-55
2021/04/29 07:16:01;;;;;;;;;;;;;;;18.34;67.44;100980.41;4995739;28;1115;-54
2021/04/29 07:18:27;;;;;;;;;;;;;;;18.36;67.44;100972.25;4995966;28;1081;-55
2021/04/29 07:20:54;;;;;;;;;;;;;;;18.37;67.24;100976.63;4995628;28;1126;-55
2021/04/29 07:23:20;;;;;;;;;;;;;;;18.38;67.38;100981.00;4995900;28;979;-55
2021/04/29 07:25:47;;;;;;;;;;;;;;;18.39;67.34;100982.72;4995856;28;984;-55
2021/04/29 07:28:13;;;;;;;;;;;;;;;18.36;67.49;100980.28;4995597;28;1064;-54
2021/04/29 07:30:40;;;;;;;;;;;;;;;18.37;67.60;100990.03;4995696;28;1973;-54
2021/04/29 07:33:06;;;;;;;;;;;;;;;18.38;68.23;100987.22;4995819;28;988;-55
2021/04/29 07:35:32;;;;;;;;;;;;;;;18.37;67.81;100979.31;4995484;28;1107;-54
2021/04/29 07:37:58;;;;;;;;;;;;;;;18.37;67.90;100982.84;4995123;28;1068;-55
2021/04/29 07:40:24;;;;;;;;;;;;;;;18.34;67.92;100984.91;4995735;28;991;-55
2021/04/29 07:42:51;;;;;;;;;;;;;;;18.34;68.05;100979.56;4995633;28;979;-54
2021/04/29 07:45:17;;;;;;;;;;;;;;;18.34;67.98;100987.59;4995349;28;1075;-55
2021/04/29 07:47:45;;;;;;;;;;;;;;;18.31;68.00;100988.69;4995289;28;1048;-55
2021/04/29 07:50:13;;;;;;;;;;;;;;;18.34;68.20;100990.25;4995297;28;1245;-55
2021/04/29 07:52:40;;;;;;;;;;;;;;;18.31;67.96;100991.38;4995483;28;1967;-55
2021/04/29 07:55:07;;;;;;;;;;;;;;;18.33;67.65;101004.63;4995192;28;1024;-55
2021/04/29 07:57:33;;;;;;;;;;;;;;;18.28;67.90;100992.50;4995280;28;1067;-55
2021/04/29 07:59:59;;;;;;;;;;;;;;;18.32;67.91;101019.00;4995192;28;1028;-55
2021/04/29 08:02:25;;;;;;;;;;;;;;;18.31;68.00;101007.44;4995090;28;1373;-55
2021/04/29 08:04:51;;;;;;;;;;;;;;;18.28;67.66;101005.88;4995476;28;1073;-56
2021/04/29 08:07:17;;;;;;;;;;;;;;;18.28;67.87;100989.81;4995889;28;1893;-54
2021/04/29 08:09:43;;;;;;;;;;;;;;;18.27;67.86;100996.13;4995452;28;1058;-55
2021/04/29 08:12:09;;;;;;;;;;;;;;;18.28;67.74;100992.50;4994954;28;1978;-55
2021/04/29 08:14:35;;;;;;;;;;;;;;;18.28;67.62;100988.94;4995420;28;1081;-55
2021/04/29 08:17:02;;;;;;;;;;;;;;;18.29;67.58;101004.88;4994958;28;1051;-55
2021/04/29 08:19:28;;;;;;;;;;;;;;;18.26;68.16;101007.81;4995313;28;1115;-55
2021/04/29 08:21:54;;;;;;;;;;;;;;;18.29;67.51;100994.16;4995329;28;987;-55
2021/04/29 08:24:20;;;;;;;;;;;;;;;18.31;67.74;101010.13;4995294;28;1071;-55
2021/04/29 08:26:46;;;;;;;;;;;;;;;18.29;68.19;100999.53;4995009;28;1044;-55
2021/04/29 08:29:12;;;;;;;;;;;;;;;18.29;68.09;100996.00;4995284;28;999;-55
2021/04/29 08:31:39;;;;;;;;;;;;;;;18.27;67.51;101006.84;4994883;28;1975;-55
2021/04/29 08:34:06;;;;;;;;;;;;;;;18.25;67.42;100987.38;4994909;28;1024;-54
2021/04/29 08:36:32;;;;;;;;;;;;;;;18.28;67.25;101008.56;4995288;28;1043;-55
2021/04/29 08:38:59;;;;;;;;;;;;;;;18.26;67.28;101001.59;4995187;28;1054;-56
2021/04/29 08:41:25;;;;;;;;;;;;;;;18.26;67.04;101015.84;4995128;28;1062;-55
2021/04/29 08:43:51;;;;;;;;;;;;;;;18.26;67.27;101005.16;4994807;28;1110;-55
2021/04/29 08:46:17;;;;;;;;;;;;;;;18.28;67.44;101013.03;4995058;28;1051;-54
2021/04/29 08:48:44;;;;;;;;;;;;;;;18.26;67.32;101010.50;4995145;28;1007;-55
2021/04/29 08:51:11;;;;;;;;;;;;;;;18.27;67.17;101017.53;4998125;28;1906;-55
2021/04/29 08:53:37;;;;;;;;;;;;;;;18.26;67.41;101015.84;4998657;28;1116;-55
2021/04/29 08:56:03;;;;;;;;;;;;;;;18.26;67.42;101009.63;4998288;28;1056;-55
2021/04/29 08:58:29;;;;;;;;;;;;;;;18.25;67.54;101006.09;4998537;28;992;-55
2021/04/29 09:00:59;;;;;;;;;;;;;;;18.23;67.27;101000.03;4998190;28;1476;-55
2021/04/29 09:03:28;;;;;;;;;;;;;;;18.24;67.89;100996.38;4998502;28;1059;-55
2021/04/29 09:05:56;;;;;;;;;;;;;;;18.24;67.54;100999.06;4998373;28;996;-54
2021/04/29 09:08:27;;;;;;;;;;;;;;;18.27;67.30;100997.97;4998372;28;1008;-55
2021/04/29 09:10:53;;;;;;;;;;;;;;;18.24;67.08;101000.88;4997780;28;1992;-55
2021/04/29 09:13:19;;;;;;;;;;;;;;;18.24;67.19;100991.03;4997973;28;1048;-55
2021/04/29 09:15:46;;;;;;;;;;;;;;;18.25;67.40;101003.44;4998245;28;987;-55
2021/04/29 09:18:13;;;;;;;;;;;;;;;18.23;66.75;100997.34;4997874;28;1250;-55
2021/04/29 09:20:49;;;;;;;;;;;;;;;18.25;67.33;101005.25;4997902;28;1043;-55
2021/04/29 09:23:18;;;;;;;;;;;;;;;18.25;66.82;100997.22;4998131;28;982;-55
2021/04/29 09:25:51;;;;;;;;;;;;;;;18.25;66.95;100987.38;4998021;28;983;-55
2021/04/29 09:28:17;;;;;;;;;;;;;;;18.24;66.86;100999.06;4997682;28;1028;-55
2021/04/29 09:30:43;;;;;;;;;;;;;;;18.25;67.26;100981.16;4997873;28;1981;-55
2021/04/29 09:33:09;;;;;;;;;;;;;;;18.21;66.92;100985.91;4997743;28;1047;-55
2021/04/29 09:35:38;;;;;;;;;;;;;;;18.25;67.00;100982.00;4997964;28;1011;-54
2021/04/29 09:38:09;;;;;;;;;;;;;;;18.26;66.89;100974.81;4997916;28;1066;-55
2021/04/29 09:40:38;;;;;;;;;;;;;;;18.27;66.52;100977.38;4997824;28;988;-55
2021/04/29 09:43:06;;;;;;;;;;;;;;;18.26;66.54;100989.09;4997744;28;987;-55
2021/04/29 09:45:34;;;;;;;;;;;;;;;18.24;66.54;100977.66;4997432;28;1068;-56
2021/04/29 09:48:01;;;;;;;;;;;;;;;18.26;66.35;100983.72;4997694;28;980;-55
2021/04/29 09:50:28;;;;;;;;;;;;;;;18.25;66.48;100992.72;4997669;28;1027;-54
2021/04/29 09:53:01;;;;;;;;;;;;;;;18.24;66.37;100991.03;4997131;28;1965;-55
2021/04/29 09:55:27;;;;;;;;;;;;;;;18.23;66.26;100983.97;4997539;28;987;-55
2021/04/29 09:58:13;;;;;;;;;;;;;;;18.25;66.56;100976.66;4997138;28;1060;-55
2021/04/29 10:00:40;;;;;;;;;;;;;;;18.27;66.50;100979.22;4997247;28;975;-56
2021/04/29 10:03:06;;;;;;;;;;;;;;;18.24;66.41;100980.31;4997326;28;1535;-55
2021/04/29 10:05:36;;;;;;;;;;;;;;;18.27;66.37;100980.06;4997297;28;1114;-55
2021/04/29 10:08:03;;;;;;;;;;;;;;;18.26;66.72;100989.09;4997052;28;1056;-55
2021/04/29 10:10:30;;;;;;;;;;;;;;;18.23;66.10;100967.91;4997058;28;1324;-55
2021/04/29 10:12:56;;;;;;;;;;;;;;;18.24;66.27;100966.94;4997159;28;1973;-56
2021/04/29 10:15:23;;;;;;;;;;;;;;;18.27;66.47;100971.19;4996897;28;1068;-55
2021/04/29 10:17:50;;;;;;;;;;;;;;;18.26;66.36;100970.34;4996772;28;1021;-55
2021/04/29 10:20:16;;;;;;;;;;;;;;;18.26;66.60;100975.69;4997091;28;1081;-55
2021/04/29 10:25:37;;;;;;;;;;;;;;;18.24;66.31;100969.63;4939651;29;2009;-55
2021/04/29 10:28:03;;;;;;;;;;;;;;;18.25;66.94;100968.63;4956386;29;1064;-56
2021/04/29 10:30:34;;;;;;;;;;;;;;;18.25;66.21;100965.94;4956297;29;1023;-55
2021/04/29 10:33:11;;;;;;;;;;;;;;;18.23;66.15;100957.19;4956209;29;1906;-55
2021/04/29 10:35:48;;;;;;;;;;;;;;;18.24;66.16;100961.59;4956244;29;1075;-55
2021/04/29 10:38:22;;;;;;;;;;;;;;;18.25;66.29;100960.59;4956233;29;988;-56
2021/04/29 10:40:49;;;;;;;;;;;;;;;18.24;66.41;100966.94;4956131;29;1075;-55
2021/04/29 10:43:15;;;;;;;;;;;;;;;18.25;66.56;100959.75;4955977;29;1041;-54
2021/04/29 10:45:51;;;;;;;;;;;;;;;18.22;66.14;100955.50;4955940;29;1061;-55
2021/04/29 10:48:17;;;;;;;;;;;;;;;18.24;65.83;100947.34;4956236;29;1876;-55
2021/04/29 10:50:44;;;;;;;;;;;;;;;18.24;66.33;100952.69;4956007;29;1071;-55
2021/04/29 10:53:10;;;;;;;;;;;;;;;18.23;66.50;100951.84;4955783;29;1902;-55
2021/04/29 10:55:37;;;;;;;;;;;;;;;18.23;66.40;100948.31;4955844;29;1005;-55
2021/04/29 10:58:04;;;;;;;;;;;;;;;18.22;66.49;100952.84;4955825;29;1020;-55
2021/04/29 11:00:31;;;;;;;;;;;;;;;18.22;66.33;100951.97;4955756;29;1052;-55
2021/04/29 11:02:59;;;;;;;;;;;;;;;18.22;66.33;100949.28;4955645;29;1536;-56
2021/04/29 11:05:26;;;;;;;;;;;;;;;18.22;66.14;100949.28;4955576;29;972;-55
2021/04/29 11:07:52;;;;;;;;;;;;;;;18.20;66.24;100952.06;4955630;29;968;-55
2021/04/29 11:10:19;;;;;;;;;;;;;;;18.19;66.09;100939.69;4994662;28;1115;-55
2021/04/29 11:12:46;;;;;;;;;;;;;;;18.20;66.41;100930.66;4995346;28;1977;-55
2021/04/29 11:15:22;;;;;;;;;;;;;;;18.21;65.98;100937.75;4996064;28;980;-55
2021/04/29 11:17:59;;;;;;;;;;;;;;;18.19;66.28;100936.16;4995994;28;1066;-55
2021/04/29 11:20:26;;;;;;;;;;;;;;;18.22;66.28;100938.56;4995997;28;1063;-56
2021/04/29 11:22:54;;;;;;;;;;;;;;;18.22;66.10;100944.81;4996022;28;975;-55
2021/04/29 11:25:20;;;;;;;;;;;;;;;18.21;65.85;100943.09;4995929;28;1066;-55
2021/04/29 11:27:46;;;;;;;;;;;;;;;18.20;66.05;100952.06;4995615;28;1051;-55
2021/04/29 11:30:13;;;;;;;;;;;;;;;18.20;66.28;100951.25;4995780;28;1106;-55
2021/04/29 11:32:40;;;;;;;;;;;;;;;18.21;66.19;100950.28;4995784;28;1906;-55
2021/04/29 11:35:19;;;;;;;;;;;;;;;18.20;66.28;100940.53;4995782;28;1062;-54
2021/04/29 11:37:45;;;;;;;;;;;;;;;18.19;66.17;100945.03;4995798;28;1074;-55
2021/04/29 11:40:13;;;;;;;;;;;;;;;18.18;66.40;100937.13;4995395;28;1103;-54
2021/04/29 11:42:42;;;;;;;;;;;;;;;18.19;66.13;100942.38;4995616;28;1023;-54
2021/04/29 11:45:09;;;;;;;;;;;;;;;18.18;66.16;100937.97;4995682;28;984;-55
2021/04/29 11:47:36;;;;;;;;;;;;;;;18.19;66.14;100934.34;4995328;28;1056;-55
2021/04/29 11:50:03;;;;;;;;;;;;;;;18.21;65.83;100948.44;4995635;28;1019;-55
2021/04/29 11:52:29;;;;;;;;;;;;;;;18.19;66.17;100934.34;4995513;28;1985;-55
2021/04/29 11:54:55;;;;;;;;;;;;;;;18.21;66.17;100952.94;4995502;28;999;-56
2021/04/29 11:57:21;;;;;;;;;;;;;;;18.20;66.20;100946.72;4995243;28;1106;-55
2021/04/29 11:59:51;;;;;;;;;;;;;;;18.19;66.15;100944.19;4995478;28;1035;-54
2021/04/29 12:02:17;;;;;;;;;;;;;;;18.18;66.51;100951.34;4995406;28;1405;-55
2021/04/29 12:04:44;;;;;;;;;;;;;;;18.17;66.08;100941.66;4995500;28;1015;-55
2021/04/29 12:07:10;;;;;;;;;;;;;;;18.15;65.87;100938.25;4995387;28;972;-55
2021/04/29 12:09:37;;;;;;;;;;;;;;;18.17;65.87;100933.63;4995145;28;1040;-55
2021/04/29 12:12:11;;;;;;;;;;;;;;;18.19;66.10;100934.34;4994919;28;1993;-55
2021/04/29 12:14:37;;;;;;;;;;;;;;;18.16;66.15;100929.22;4995075;28;1119;-55
2021/04/29 12:17:04;;;;;;;;;;;;;;;18.17;66.31;100930.94;4995102;28;1127;-55
2021/04/29 12:19:30;;;;;;;;;;;;;;;18.19;65.62;100928.16;4995014;28;1060;-55
2021/04/29 12:21:57;;;;;;;;;;;;;;;18.18;66.08;100918.41;4995034;28;1052;-56
2021/04/29 12:24:23;;;;;;;;;;;;;;;18.15;66.11;100903.44;4997262;28;1041;-55
2021/04/29 12:26:50;;;;;;;;;;;;;;;18.18;65.93;100910.38;4998904;28;1115;-55
2021/04/29 12:29:18;;;;;;;;;;;;;;;18.17;65.83;100912.19;4998844;28;1056;-55
2021/04/29 12:31:52;;;;;;;;;;;;;;;18.16;65.75;100915.00;4998950;28;1989;-54
2021/04/29 12:34:19;;;;;;;;;;;;;;;18.17;65.80;100920.22;4998994;28;983;-55
2021/04/29 12:36:49;;;;;;;;;;;;;;;18.15;66.40;100924.88;4998971;28;1063;-55
2021/04/29 12:39:15;;;;;;;;;;;;;;;18.17;66.15;100922.91;4998613;28;1123;-55
2021/04/29 12:41:42;;;;;;;;;;;;;;;18.19;66.02;100912.09;4998877;28;984;-55
2021/04/29 12:44:09;;;;;;;;;;;;;;;18.15;66.11;100908.81;4998534;28;1060;-55
2021/04/29 12:46:36;;;;;;;;;;;;;;;18.15;65.94;100903.44;4998428;28;1056;-54
2021/04/29 12:49:04;;;;;;;;;;;;;;;18.17;65.85;100904.16;4999330;28;1879;-55